createdAt,value
2022-10-14T00:01:34.817Z,14.25
2022-10-14T00:04:02.024Z,13.77
2022-10-14T00:06:31.276Z,12.57
2022-10-14T00:09:04.640Z,13.48
2022-10-14T00:11:33.739Z,14.10
2022-10-14T00:14:04.329Z,13.75
2022-10-14T00:16:34.520Z,12.80
2022-10-14T00:19:01.788Z,15.07
2022-10-14T00:21:30.093Z,15.02
2022-10-14T00:23:58.168Z,14.43
2022-10-14T00:26:28.294Z,13.85
2022-10-14T00:28:56.579Z,14.50
2022-10-14T00:31:24.037Z,14.98
2022-10-14T00:33:51.291Z,14.52
2022-10-14T00:36:20.642Z,13.77
2022-10-14T00:38:48.907Z,14.13
2022-10-14T00:41:26.413Z,14.23
2022-10-14T00:44:06.158Z,13.88
2022-10-14T00:46:38.656Z,13.80
2022-10-14T00:49:19.520Z,13.63
2022-10-14T00:51:52.051Z,13.68
2022-10-14T00:54:23.654Z,12.63
2022-10-14T00:56:51.710Z,12.13
2022-10-14T00:59:19.184Z,12.65
2022-10-14T01:01:46.242Z,12.35
2022-10-14T01:04:13.188Z,11.95
2022-10-14T01:07:06.556Z,13.88
2022-10-14T01:09:41.213Z,12.15
2022-10-14T01:12:28.964Z,12.13
2022-10-14T01:15:34.399Z,12.07
2022-10-14T01:18:36.264Z,12.00
2022-10-14T01:21:36.316Z,12.85
2022-10-14T01:24:37.338Z,12.88
2022-10-14T01:27:23.133Z,12.50
2022-10-14T01:30:06.493Z,12.85
2022-10-14T01:33:02.251Z,12.18
2022-10-14T01:35:56.561Z,13.13
2022-10-14T01:38:35.305Z,12.88
2022-10-14T01:41:28.529Z,14.02
2022-10-14T01:43:59.249Z,14.63
2022-10-14T01:46:27.532Z,14.18
2022-10-14T01:49:03.840Z,13.25
2022-10-14T01:51:38.367Z,13.38
2022-10-14T01:54:11.308Z,14.05
2022-10-14T01:56:40.744Z,12.80
2022-10-14T01:59:11.889Z,13.82
2022-10-14T02:01:39.070Z,13.48
2022-10-14T02:04:20.475Z,14.07
2022-10-14T02:07:08.322Z,15.40
2022-10-14T02:10:02.286Z,14.40
2022-10-14T02:13:04.933Z,16.08
2022-10-14T02:15:39.884Z,15.68
2022-10-14T02:18:17.951Z,14.90
2022-10-14T02:21:03.532Z,15.00
2022-10-14T02:23:37.788Z,15.05
2022-10-14T02:26:05.980Z,14.82
2022-10-14T02:28:35.119Z,16.88
2022-10-14T02:31:07.158Z,15.35
2022-10-14T02:33:40.994Z,15.25
2022-10-14T02:36:11.843Z,14.75
2022-10-14T02:38:40.731Z,15.93
2022-10-14T02:41:14.811Z,13.90
2022-10-14T02:43:41.797Z,13.80
2022-10-14T02:46:08.796Z,14.85
2022-10-14T02:48:35.920Z,14.38
2022-10-14T02:51:03.069Z,14.20
2022-10-14T02:53:30.976Z,13.10
2022-10-14T02:55:58.012Z,14.02
2022-10-14T02:58:24.962Z,13.02
2022-10-14T03:00:51.906Z,13.05
2022-10-14T03:03:18.849Z,12.93
2022-10-14T03:05:45.925Z,14.93
2022-10-14T03:08:12.990Z,16.65
2022-10-14T03:10:39.939Z,14.63
2022-10-14T03:13:07.453Z,14.02
2022-10-14T03:15:34.437Z,15.15
2022-10-14T03:18:01.362Z,13.65
2022-10-14T03:20:28.443Z,14.40
2022-10-14T03:22:55.427Z,14.00
2022-10-14T03:25:23.511Z,12.88
2022-10-14T03:27:50.786Z,13.27
2022-10-14T03:30:17.797Z,13.20
2022-10-14T03:32:44.850Z,13.98
2022-10-14T03:35:11.873Z,14.32
2022-10-14T03:37:38.792Z,15.90
2022-10-14T03:40:06.375Z,14.93
2022-10-14T03:42:33.298Z,14.25
2022-10-14T03:45:00.261Z,15.30
2022-10-14T03:47:27.346Z,16.83
2022-10-14T03:49:54.452Z,15.85
2022-10-14T03:52:21.645Z,16.50
2022-10-14T03:54:48.802Z,15.90
2022-10-14T03:57:15.700Z,16.75
2022-10-14T03:59:42.741Z,16.52
2022-10-14T04:02:09.859Z,17.52
2022-10-14T04:04:36.824Z,16.45
2022-10-14T04:07:03.776Z,17.88
2022-10-14T04:09:30.765Z,17.67
2022-10-14T04:11:58.214Z,16.98
2022-10-14T04:14:26.666Z,17.15
2022-10-14T04:16:53.732Z,17.65
2022-10-14T04:19:20.858Z,17.63
2022-10-14T04:21:47.987Z,17.17
2022-10-14T04:24:15.745Z,17.23
2022-10-14T04:26:43.133Z,17.67
2022-10-14T04:29:10.026Z,17.23
2022-10-14T04:31:37.109Z,19.17
2022-10-14T04:34:04.029Z,19.60
2022-10-14T04:36:31.134Z,18.42
2022-10-14T04:38:58.032Z,16.70
2022-10-14T04:41:25.130Z,18.02
2022-10-14T04:43:52.022Z,21.02
2022-10-14T04:46:19.060Z,20.65
2022-10-14T04:48:48.317Z,19.27
2022-10-14T04:51:15.660Z,19.77
2022-10-14T04:53:42.583Z,18.40
2022-10-14T04:56:09.770Z,23.13
2022-10-14T04:58:36.693Z,21.98
2022-10-14T05:01:03.845Z,20.48
2022-10-14T05:03:30.730Z,22.23
2022-10-14T05:05:58.933Z,22.15
2022-10-14T05:08:26.100Z,22.95
2022-10-14T05:10:53.030Z,21.80
2022-10-14T05:13:19.991Z,22.35
2022-10-14T05:15:47.893Z,22.75
2022-10-14T05:18:15.099Z,20.08
2022-10-14T05:20:42.112Z,22.20
2022-10-14T05:23:09.013Z,22.00
2022-10-14T05:25:36.020Z,21.45
2022-10-14T05:28:03.033Z,21.08
2022-10-14T05:30:34.522Z,22.58
2022-10-14T05:33:02.205Z,22.55
2022-10-14T05:35:53.599Z,21.85
2022-10-14T05:38:16.258Z,18.15
2022-10-14T05:40:43.810Z,19.77
2022-10-14T05:43:10.805Z,21.05
2022-10-14T05:45:37.762Z,17.83
2022-10-14T05:48:05.030Z,18.50
2022-10-14T05:50:32.055Z,17.63
2022-10-14T05:52:58.981Z,18.48
2022-10-14T05:55:25.914Z,19.08
2022-10-14T05:57:56.511Z,18.60
2022-10-14T06:00:25.861Z,18.40
2022-10-14T06:03:02.536Z,17.00
2022-10-14T06:05:29.686Z,17.85
2022-10-14T06:07:56.586Z,17.70
2022-10-14T06:10:23.749Z,16.98
2022-10-14T06:12:50.676Z,17.35
2022-10-14T06:15:17.705Z,17.00
2022-10-14T06:17:44.737Z,17.85
2022-10-14T06:20:11.700Z,15.43
2022-10-14T06:22:38.595Z,18.17
2022-10-14T06:25:06.054Z,16.67
2022-10-14T06:27:33.001Z,16.27
2022-10-14T06:29:59.973Z,15.68
2022-10-14T06:32:27.000Z,15.88
2022-10-14T06:34:53.888Z,16.83
2022-10-14T06:37:20.964Z,17.70
2022-10-14T06:39:47.888Z,17.88
2022-10-14T06:42:15.105Z,15.98
2022-10-14T06:44:42.227Z,14.82
2022-10-14T06:47:09.199Z,17.30
2022-10-14T06:49:36.191Z,18.08
2022-10-14T06:52:03.259Z,16.20
2022-10-14T06:54:30.264Z,15.85
2022-10-14T06:56:57.306Z,17.23
2022-10-14T06:59:24.419Z,16.55
2022-10-14T07:01:51.743Z,17.35
2022-10-14T07:04:18.771Z,17.67
2022-10-14T07:06:45.727Z,15.93
2022-10-14T07:09:12.716Z,14.88
2022-10-14T07:11:39.812Z,15.82
2022-10-14T07:14:06.843Z,13.68
2022-10-14T07:16:33.830Z,14.30
2022-10-14T07:19:00.795Z,13.82
2022-10-14T07:21:27.740Z,14.80
2022-10-14T07:23:55.616Z,13.60
2022-10-14T07:26:23.206Z,13.48
2022-10-14T07:28:50.351Z,13.38
2022-10-14T07:31:17.898Z,14.43
2022-10-14T07:33:45.048Z,14.95
2022-10-14T07:36:17.209Z,14.38
2022-10-14T07:38:48.260Z,13.55
2022-10-14T07:41:21.406Z,13.82
2022-10-14T07:43:53.357Z,12.18
2022-10-14T07:46:29.667Z,14.45
2022-10-14T07:49:02.005Z,13.07
2022-10-14T07:51:29.184Z,16.83
2022-10-14T07:53:58.805Z,12.23
2022-10-14T07:56:26.127Z,12.85
2022-10-14T07:58:54.353Z,13.65
2022-10-14T08:01:21.560Z,12.45
2022-10-14T08:03:48.875Z,12.02
2022-10-14T08:06:16.285Z,11.75
2022-10-14T08:08:44.186Z,13.05
2022-10-14T08:11:25.746Z,10.93
2022-10-14T08:13:53.726Z,10.73
2022-10-14T08:16:24.939Z,9.93
2022-10-14T08:18:52.940Z,10.32
2022-10-14T08:21:21.389Z,9.18
2022-10-14T08:23:48.463Z,10.00
2022-10-14T08:26:25.255Z,8.05
2022-10-14T08:28:52.362Z,8.35
2022-10-14T08:31:20.198Z,8.40
2022-10-14T08:33:47.553Z,8.05
2022-10-14T08:36:15.515Z,8.30
2022-10-14T08:38:42.922Z,7.97
2022-10-14T08:41:13.076Z,8.55
2022-10-14T08:43:47.864Z,8.40
2022-10-14T08:46:30.204Z,9.18
2022-10-14T08:49:07.872Z,7.60
2022-10-14T08:51:35.022Z,7.65
2022-10-14T08:54:11.234Z,8.20
2022-10-14T08:56:39.105Z,6.88
2022-10-14T08:59:12.975Z,7.63
2022-10-14T09:01:54.172Z,8.15
2022-10-14T09:04:21.685Z,7.13
2022-10-14T09:06:50.511Z,8.15
2022-10-14T09:09:20.364Z,6.88
2022-10-14T09:11:53.281Z,7.53
2022-10-14T09:14:25.072Z,7.78
2022-10-14T09:16:57.019Z,7.82
2022-10-14T09:19:32.669Z,8.10
2022-10-14T09:22:01.391Z,8.27
2022-10-14T09:24:35.897Z,8.50
2022-10-14T09:27:14.006Z,8.48
2022-10-14T09:29:48.783Z,9.45
2022-10-14T09:32:28.668Z,9.02
2022-10-14T09:34:57.312Z,9.75
2022-10-14T09:37:35.588Z,9.20
2022-10-14T09:40:22.536Z,9.43
2022-10-14T09:43:08.338Z,8.93
2022-10-14T09:45:47.151Z,10.20
2022-10-14T09:48:40.550Z,8.65
2022-10-14T09:51:20.734Z,9.25
2022-10-14T09:53:55.632Z,8.95
2022-10-14T09:56:42.004Z,9.00
2022-10-14T09:59:21.206Z,9.95
2022-10-14T10:01:55.669Z,9.73
2022-10-14T10:04:36.268Z,8.93
2022-10-14T10:07:07.742Z,10.30
2022-10-14T10:09:34.934Z,10.27
2022-10-14T10:12:24.352Z,10.57
2022-10-14T10:15:05.273Z,9.15
2022-10-14T10:17:36.128Z,8.40
2022-10-14T10:20:07.634Z,9.63
2022-10-14T10:22:37.239Z,9.73
2022-10-14T10:25:04.462Z,9.65
2022-10-14T10:27:46.233Z,9.38
2022-10-14T10:30:28.598Z,9.25
2022-10-14T10:33:43.247Z,48.03
2022-10-14T10:36:23.092Z,9.73
2022-10-14T10:38:59.982Z,11.13
2022-10-14T10:41:37.747Z,7.35
2022-10-14T10:44:27.032Z,8.40
2022-10-14T10:47:15.623Z,7.53
2022-10-14T10:50:11.798Z,7.22
2022-10-14T10:53:01.481Z,7.45
2022-10-14T10:55:45.820Z,6.68
2022-10-14T10:58:36.962Z,7.18
2022-10-14T11:01:17.588Z,7.03
2022-10-14T11:04:03.024Z,6.05
2022-10-14T11:07:32.607Z,7.45
2022-10-14T11:10:50.108Z,7.05
2022-10-14T11:13:23.198Z,7.47
2022-10-14T11:16:07.046Z,7.55
2022-10-14T11:19:04.880Z,6.85
2022-10-14T11:21:34.509Z,7.45
2022-10-14T11:24:26.905Z,8.48
2022-10-14T11:27:14.230Z,8.02
2022-10-14T11:30:03.956Z,9.55
2022-10-14T11:32:38.333Z,8.88
2022-10-14T11:35:23.531Z,8.35
2022-10-14T11:38:16.261Z,8.15
2022-10-14T11:41:10.737Z,8.02
2022-10-14T11:44:17.203Z,8.10
2022-10-14T11:46:49.529Z,8.02
2022-10-14T11:49:22.558Z,8.77
2022-10-14T11:52:17.165Z,8.75
2022-10-14T11:55:09.660Z,8.23
2022-10-14T11:57:46.375Z,7.65
2022-10-14T12:00:38.749Z,8.55
2022-10-14T12:03:17.997Z,7.78
2022-10-14T12:05:53.109Z,8.73
2022-10-14T12:08:30.387Z,8.25
2022-10-14T12:11:24.246Z,9.00
2022-10-14T12:14:22.681Z,8.18
2022-10-14T12:16:53.408Z,8.77
2022-10-14T12:19:27.460Z,8.00
2022-10-14T12:22:14.091Z,7.90
2022-10-14T12:24:47.687Z,7.88
2022-10-14T12:27:15.503Z,6.90
2022-10-14T12:29:45.676Z,6.00
2022-10-14T12:32:28.728Z,5.53
2022-10-14T12:35:02.661Z,5.40
2022-10-14T12:37:35.053Z,4.70
2022-10-14T12:40:02.552Z,6.00
2022-10-14T12:42:32.293Z,5.65
2022-10-14T12:45:01.825Z,5.00
2022-10-14T12:47:37.909Z,4.43
2022-10-14T12:50:06.903Z,4.70
2022-10-14T12:52:37.324Z,5.35
2022-10-14T12:55:31.575Z,4.78
2022-10-14T12:58:02.350Z,5.18
2022-10-14T13:00:33.037Z,4.85
2022-10-14T13:03:03.065Z,5.22
2022-10-14T13:05:30.874Z,4.60
2022-10-14T13:08:14.843Z,5.00
2022-10-14T13:10:47.996Z,5.22
2022-10-14T13:13:44.930Z,4.80
2022-10-14T13:16:23.908Z,4.53
2022-10-14T13:18:58.215Z,4.50
2022-10-14T13:21:37.134Z,3.97
2022-10-14T13:24:26.304Z,18.65
2022-10-14T13:26:53.467Z,5.38
2022-10-14T13:29:20.387Z,4.13
2022-10-14T13:32:07.862Z,7.72
2022-10-14T13:34:48.580Z,4.32
2022-10-14T13:37:46.505Z,5.30
2022-10-14T13:40:19.891Z,4.57
2022-10-14T13:42:52.347Z,4.55
2022-10-14T13:45:22.423Z,5.85
2022-10-14T13:47:50.007Z,4.85
2022-10-14T13:50:21.413Z,5.35
2022-10-14T13:52:56.644Z,9.10
2022-10-14T13:55:25.715Z,5.05
2022-10-14T13:58:14.081Z,5.15
2022-10-14T14:00:59.296Z,4.80
2022-10-14T14:03:37.864Z,4.65
2022-10-14T14:06:13.062Z,4.50
2022-10-14T14:09:01.510Z,5.78
2022-10-14T14:11:32.728Z,4.65
2022-10-14T14:14:07.049Z,4.03
2022-10-14T14:16:40.968Z,4.03
2022-10-14T14:19:22.288Z,3.90
2022-10-14T14:21:49.615Z,3.78
2022-10-14T14:24:26.105Z,3.60
2022-10-14T14:26:55.237Z,4.88
2022-10-14T14:29:27.166Z,4.53
2022-10-14T14:32:06.034Z,5.00
2022-10-14T14:34:36.352Z,4.70
2022-10-14T14:37:36.826Z,4.63
2022-10-14T14:40:14.984Z,5.50
2022-10-14T14:42:42.613Z,5.13
2022-10-14T14:45:20.651Z,4.20
2022-10-14T14:47:56.484Z,5.32
2022-10-14T14:50:36.677Z,4.18
2022-10-14T14:53:10.460Z,4.90
2022-10-14T14:55:57.368Z,2.90
2022-10-14T14:58:30.144Z,3.78
2022-10-14T15:00:57.770Z,3.55
2022-10-14T15:03:27.616Z,3.20
2022-10-14T15:06:05.616Z,5.00
2022-10-14T15:08:38.039Z,4.15
2022-10-14T15:11:05.267Z,4.85
2022-10-14T15:13:45.101Z,3.88
2022-10-14T15:16:12.367Z,4.15
2022-10-14T15:18:42.649Z,4.82
2022-10-14T15:21:12.524Z,6.65
2022-10-14T15:23:53.403Z,7.45
2022-10-14T15:26:30.302Z,5.95
2022-10-14T15:29:14.290Z,6.47
2022-10-14T15:31:43.880Z,5.32
2022-10-14T15:34:20.310Z,14.20
2022-10-14T15:36:50.266Z,20.13
2022-10-14T15:39:17.739Z,8.15
2022-10-14T15:41:45.413Z,4.03
2022-10-14T15:44:12.607Z,11.90
2022-10-14T15:47:00.721Z,3.85
2022-10-14T15:49:37.754Z,8.02
2022-10-14T15:52:05.184Z,4.22
2022-10-14T15:54:32.202Z,3.40
2022-10-14T15:56:59.968Z,4.13
2022-10-14T15:59:27.001Z,2.92
2022-10-14T16:01:54.495Z,3.70
2022-10-14T16:04:24.914Z,3.08
2022-10-14T16:06:54.957Z,3.00
2022-10-14T16:09:22.849Z,4.57
2022-10-14T16:11:57.482Z,4.20
2022-10-14T16:14:27.841Z,3.50
2022-10-14T16:16:55.630Z,3.50
2022-10-14T16:19:22.679Z,3.15
2022-10-14T16:21:50.132Z,5.20
2022-10-14T16:24:20.409Z,6.13
2022-10-14T16:26:51.533Z,3.78
2022-10-14T16:29:19.433Z,3.30
2022-10-14T16:31:50.971Z,3.53
2022-10-14T16:34:18.980Z,5.65
2022-10-14T16:36:47.020Z,5.95
2022-10-14T16:39:14.514Z,4.25
2022-10-14T16:41:41.862Z,5.00
2022-10-14T16:44:24.578Z,4.82
2022-10-14T16:47:12.659Z,4.28
2022-10-14T16:49:40.480Z,4.82
2022-10-14T16:52:08.315Z,4.50
2022-10-14T16:54:35.342Z,4.15
2022-10-14T16:57:02.791Z,5.15
2022-10-14T16:59:30.711Z,4.50
2022-10-14T17:01:58.404Z,6.38
2022-10-14T17:04:25.830Z,6.68
2022-10-14T17:06:53.900Z,6.28
2022-10-14T17:09:21.272Z,6.60
2022-10-14T17:11:49.914Z,7.30
2022-10-14T17:14:19.113Z,6.38
2022-10-14T17:16:50.510Z,7.10
2022-10-14T17:19:17.474Z,6.60
2022-10-14T17:21:44.489Z,6.90
2022-10-14T17:24:11.412Z,9.77
2022-10-14T17:26:38.460Z,7.93
2022-10-14T17:29:05.482Z,9.30
2022-10-14T17:31:32.616Z,8.18
2022-10-14T17:34:00.133Z,7.80
2022-10-14T17:36:29.614Z,6.40
2022-10-14T17:38:57.583Z,7.50
2022-10-14T17:41:26.689Z,5.32
2022-10-14T17:43:55.093Z,5.00
2022-10-14T17:46:25.039Z,5.53
2022-10-14T17:48:54.625Z,4.30
2022-10-14T17:51:24.528Z,6.20
2022-10-14T17:53:59.718Z,5.72
2022-10-14T17:56:28.436Z,5.53
2022-10-14T17:58:57.502Z,4.60
2022-10-14T18:01:37.228Z,4.65
2022-10-14T18:04:11.342Z,4.03
2022-10-14T18:06:38.422Z,4.05
2022-10-14T18:09:08.252Z,4.28
2022-10-14T18:12:03.909Z,4.20
2022-10-14T18:14:27.744Z,5.07
2022-10-14T18:16:54.792Z,6.53
2022-10-14T18:19:22.417Z,3.95
2022-10-14T18:21:49.817Z,3.63
2022-10-14T18:24:17.231Z,3.55
2022-10-14T18:26:44.346Z,3.72
2022-10-14T18:29:13.211Z,3.50
2022-10-14T18:31:40.532Z,3.72
2022-10-14T18:34:11.172Z,3.63
2022-10-14T18:36:39.048Z,3.75
2022-10-14T18:39:08.632Z,4.95
2022-10-14T18:41:37.379Z,3.88
2022-10-14T18:44:05.814Z,3.85
2022-10-14T18:46:36.467Z,4.25
2022-10-14T18:49:06.167Z,3.95
2022-10-14T18:51:36.232Z,3.50
2022-10-14T18:54:10.211Z,3.63
2022-10-14T18:56:40.886Z,3.83
2022-10-14T18:59:13.401Z,3.03
2022-10-14T19:01:41.053Z,3.45
2022-10-14T19:04:10.374Z,14.50
2022-10-14T19:06:37.385Z,12.85
2022-10-14T19:09:05.474Z,4.40
2022-10-14T19:11:34.337Z,3.90
2022-10-14T19:14:05.343Z,3.50
2022-10-14T19:16:36.205Z,3.15
2022-10-14T19:19:08.528Z,4.28
2022-10-14T19:21:35.844Z,2.70
2022-10-14T19:24:03.387Z,3.35
2022-10-14T19:26:33.976Z,3.42
2022-10-14T19:29:04.348Z,2.92
2022-10-14T19:31:36.993Z,2.85
2022-10-14T19:34:07.250Z,3.50
2022-10-14T19:36:38.244Z,2.50
2022-10-14T19:39:07.583Z,2.83
2022-10-14T19:41:43.374Z,4.28
2022-10-14T19:44:11.682Z,3.10
2022-10-14T19:46:39.678Z,3.40
2022-10-14T19:49:08.237Z,3.25
2022-10-14T19:51:35.891Z,2.95
2022-10-14T19:54:03.332Z,2.88
2022-10-14T19:56:30.704Z,3.13
2022-10-14T19:58:59.088Z,3.60
2022-10-14T20:01:28.274Z,2.90
2022-10-14T20:03:55.903Z,3.50
2022-10-14T20:06:24.014Z,3.42
2022-10-14T20:08:51.487Z,3.17
2022-10-14T20:11:23.486Z,3.42
2022-10-14T20:13:50.814Z,3.83
2022-10-14T20:16:18.025Z,3.35
2022-10-14T20:18:45.202Z,3.35
2022-10-14T20:21:16.520Z,3.45
2022-10-14T20:23:44.381Z,3.42
2022-10-14T20:26:15.130Z,5.32
2022-10-14T20:28:42.259Z,3.67
2022-10-14T20:31:11.635Z,3.40
2022-10-14T20:33:38.878Z,3.08
2022-10-14T20:36:08.468Z,3.35
2022-10-14T20:38:37.977Z,3.17
2022-10-14T20:41:13.550Z,2.90
2022-10-14T20:43:41.205Z,2.22
2022-10-14T20:46:08.538Z,2.42
2022-10-14T20:48:37.443Z,2.53
2022-10-14T20:51:10.293Z,3.00
2022-10-14T20:53:37.645Z,2.65
2022-10-14T20:56:10.182Z,2.45
2022-10-14T20:58:37.377Z,2.60
2022-10-14T21:01:16.142Z,2.30
2022-10-14T21:03:45.205Z,2.60
2022-10-14T21:06:15.238Z,2.45
2022-10-14T21:08:42.571Z,2.50
2022-10-14T21:11:15.357Z,2.20
2022-10-14T21:13:50.238Z,1.90
2022-10-14T21:16:23.961Z,2.10
2022-10-14T21:18:57.866Z,1.83
2022-10-14T21:21:27.653Z,2.50
2022-10-14T21:23:55.624Z,2.10
2022-10-14T21:26:23.242Z,2.45
2022-10-14T21:28:50.271Z,2.30
2022-10-14T21:31:19.258Z,1.88
2022-10-14T21:33:47.949Z,2.10
2022-10-14T21:36:16.868Z,1.73
2022-10-14T21:38:43.877Z,1.50
2022-10-14T21:41:11.974Z,1.83
2022-10-14T21:43:39.491Z,1.63
2022-10-14T21:46:10.006Z,1.88
2022-10-14T21:48:36.954Z,2.00
2022-10-14T21:51:06.698Z,1.77
2022-10-14T21:53:34.607Z,2.33
2022-10-14T21:56:01.908Z,2.13
2022-10-14T21:58:29.206Z,3.22
2022-10-14T22:01:13.917Z,2.50
2022-10-14T22:03:42.281Z,3.17
2022-10-14T22:06:15.165Z,2.78
2022-10-14T22:08:48.410Z,3.03
2022-10-14T22:11:17.111Z,2.60
2022-10-14T22:13:44.211Z,3.67
2022-10-14T22:16:11.471Z,3.15
2022-10-14T22:18:38.396Z,3.03
2022-10-14T22:21:07.280Z,2.80
2022-10-14T22:23:34.816Z,3.53
2022-10-14T22:26:03.689Z,3.20
2022-10-14T22:28:31.861Z,3.53
2022-10-14T22:31:10.816Z,3.22
2022-10-14T22:33:39.027Z,4.00
2022-10-14T22:36:07.981Z,4.00
2022-10-14T22:38:35.687Z,4.10
2022-10-14T22:41:04.107Z,3.97
2022-10-14T22:43:31.656Z,3.72
2022-10-14T22:46:12.672Z,3.50
2022-10-14T22:48:39.746Z,4.10
2022-10-14T22:51:12.485Z,3.95
2022-10-14T22:53:41.480Z,4.68
2022-10-14T22:56:10.901Z,3.63
2022-10-14T22:58:38.166Z,3.88
2022-10-14T23:01:10.783Z,4.13
2022-10-14T23:03:38.379Z,3.95
2022-10-14T23:06:09.481Z,4.13
2022-10-14T23:08:37.346Z,3.92
2022-10-14T23:11:05.369Z,4.07
2022-10-14T23:13:32.941Z,4.03
2022-10-14T23:16:08.580Z,4.07
2022-10-14T23:18:37.744Z,3.92
2022-10-14T23:21:17.484Z,3.97
2022-10-14T23:23:45.800Z,3.80
2022-10-14T23:26:15.173Z,3.67
2022-10-14T23:28:42.673Z,3.40
2022-10-14T23:31:15.074Z,3.88
2022-10-14T23:33:42.684Z,3.95
2022-10-14T23:36:11.700Z,4.47
2022-10-14T23:38:39.945Z,3.90
2022-10-14T23:41:08.631Z,3.30
2022-10-14T23:43:35.998Z,4.05
2022-10-14T23:46:03.329Z,3.45
2022-10-14T23:48:30.557Z,3.55
2022-10-14T23:50:57.804Z,3.78
2022-10-14T23:53:28.517Z,3.45
2022-10-14T23:55:58.242Z,3.30
2022-10-14T23:58:28.541Z,3.58
